Time;durP1;ratioP1;P1;durP2;ratioP2;P2;SDS_P1;SDS_P2;PMS_P1;PMS_P2;Temp;Humidity;BMP_temperature;BMP_pressure;BME280_temperature;BME280_humidity;BME280_pressure;Samples;Min_cycle;Max_cycle;Signal;HPM_P1;HPM_P2
2022/08/02 00:01:43;;;;;;;6.05;1.77;;;21.10;99.20;;;;;;5072694;28;20017;-72
2022/08/02 00:04:09;;;;;;;11.27;2.25;;;21.10;98.70;;;;;;5072263;28;20036;-73
2022/08/02 00:06:35;;;;;;;8.68;1.83;;;21.00;99.30;;;;;;5072628;28;20103;-72
2022/08/02 00:09:01;;;;;;;8.90;2.05;;;21.10;99.00;;;;;;5072598;28;20035;-72
2022/08/02 00:11:27;;;;;;;4.22;1.40;;;21.00;99.00;;;;;;5072467;28;20059;-72
2022/08/02 00:13:53;;;;;;;7.03;1.92;;;20.90;99.60;;;;;;5072436;28;20016;-72
2022/08/02 00:16:19;;;;;;;3.20;1.50;;;20.80;99.60;;;;;;5072564;28;20120;-73
2022/08/02 00:18:44;;;;;;;6.60;1.58;;;20.60;99.90;;;;;;5072325;28;20032;-72
2022/08/02 00:21:10;;;;;;;6.38;1.52;;;20.80;99.90;;;;;;5054386;28;20071;-71
2022/08/02 00:23:36;;;;;;;2.95;1.52;;;20.90;99.60;;;;;;5072387;28;20051;-72
2022/08/02 00:26:02;;;;;;;8.82;2.35;;;20.90;99.60;;;;;;5072092;28;20027;-72
2022/08/02 00:28:27;;;;;;;6.15;2.25;;;20.80;99.90;;;;;;5072539;28;20028;-70
2022/08/02 00:30:53;;;;;;;3.33;1.67;;;20.90;99.90;;;;;;5054290;28;20073;-71
2022/08/02 00:33:19;;;;;;;5.82;1.88;;;20.80;99.90;;;;;;5074441;28;20029;-72
2022/08/02 00:35:48;;;;;;;3.70;1.67;;;20.50;99.90;;;;;;5075917;28;20024;-71
2022/08/02 00:38:14;;;;;;;8.80;1.63;;;20.40;99.90;;;;;;5068665;22;20467;-84
2022/08/02 00:40:45;;;;;;;9.40;1.90;;;20.50;99.90;;;;;;5055360;28;20029;-86
2022/08/02 00:43:11;;;;;;;6.00;1.70;;;20.50;99.90;;;;;;5055872;28;20370;-85
2022/08/02 00:45:38;;;;;;;7.03;1.98;;;20.40;99.90;;;;;;5055815;28;20040;-84
2022/08/02 00:48:06;;;;;;;5.60;1.98;;;20.20;99.90;;;;;;5058440;28;20366;-86
2022/08/02 00:50:34;;;;;;;6.43;1.85;;;20.30;99.90;;;;;;5058009;28;20025;-85
2022/08/02 00:53:00;;;;;;;4.47;1.65;;;20.20;99.90;;;;;;5058397;28;20033;-84
2022/08/02 00:55:26;;;;;;;9.95;2.17;;;20.10;99.90;;;;;;5056053;28;20021;-83
2022/08/02 00:57:53;;;;;;;4.88;1.80;;;20.20;99.90;;;;;;5055969;28;20108;-85
2022/08/02 01:00:19;;;;;;;7.88;1.90;;;20.00;99.90;;;;;;5055747;28;20087;-85
2022/08/02 01:02:45;;;;;;;5.50;1.85;;;20.00;99.90;;;;;;5053723;28;20020;-85
2022/08/02 01:05:12;;;;;;;6.25;1.95;;;20.00;99.90;;;;;;5055755;28;20119;-84
2022/08/02 01:07:37;;;;;;;5.13;1.85;;;20.10;99.90;;;;;;5055509;28;20482;-86
2022/08/02 01:10:04;;;;;;;6.80;2.28;;;20.00;99.90;;;;;;5055324;28;20039;-86
2022/08/02 01:12:30;;;;;;;9.68;1.75;;;20.10;99.90;;;;;;5055523;28;20462;-87
2022/08/02 01:14:59;;;;;;;7.03;2.00;;;20.20;99.90;;;;;;5055116;28;20036;-85
2022/08/02 01:18:14;;;;;;;7.80;2.20;;;20.30;99.90;;;;;;5053748;28;20032;-86
2022/08/02 01:21:05;;;;;;;8.52;2.10;;;20.10;99.90;;;;;;5054836;28;20055;-86
2022/08/02 01:23:44;;;;;;;7.35;2.20;;;20.10;99.90;;;;;;5054985;28;20573;-87
2022/08/02 01:26:21;;;;;;;5.05;1.83;;;20.10;99.90;;;;;;5055239;28;20025;-86
2022/08/02 01:29:00;;;;;;;4.68;2.10;;;20.20;99.90;;;;;;5055086;28;20029;-87
2022/08/02 01:31:34;;;;;;;5.00;2.05;;;20.10;99.90;;;;;;5054824;28;20088;-86
2022/08/02 01:34:14;;;;;;;12.27;2.42;;;20.10;99.90;;;;;;5054977;28;20162;-87
2022/08/02 01:36:48;;;;;;;6.18;2.15;;;20.10;99.90;;;;;;5054906;28;20028;-87
2022/08/02 01:39:18;;;;;;;8.27;2.03;;;20.20;99.90;;;;;;5042127;28;20052;-85
2022/08/02 01:41:45;;;;;;;7.30;2.08;;;20.10;99.90;;;;;;5054940;28;20999;-87
2022/08/02 01:44:13;;;;;;;5.45;2.05;;;20.00;99.90;;;;;;5054790;28;20118;-86
2022/08/02 01:46:41;;;;;;;9.18;2.63;;;19.70;99.90;;;;;;5054419;28;20029;-87
2022/08/02 01:49:21;;;;;;;9.38;2.47;;;19.80;99.90;;;;;;5054773;28;20056;-86
2022/08/02 01:54:37;;;;;;;9.55;2.50;;;19.90;99.90;;;;;;5041416;28;20029;-85
2022/08/02 01:57:06;;;;;;;8.00;2.72;;;20.00;99.90;;;;;;5054638;28;20017;-85
2022/08/02 01:59:33;;;;;;;11.57;2.83;;;20.10;99.90;;;;;;5054282;28;20021;-85
2022/08/02 02:02:01;;;;;;;14.35;4.32;;;20.10;99.90;;;;;;5053224;28;20112;-85
2022/08/02 02:04:29;;;;;;;7.82;3.58;;;19.70;99.90;;;;;;5054300;28;20040;-85
2022/08/02 02:06:58;;;;;;;10.40;3.28;;;19.50;99.90;;;;;;5054282;28;20013;-85
2022/08/02 02:09:28;;;;;;;12.52;3.97;;;19.50;99.90;;;;;;5054389;28;20048;-86
2022/08/02 02:11:58;;;;;;;9.02;3.33;;;19.30;99.90;;;;;;5054418;28;20029;-86
2022/08/02 02:14:24;;;;;;;13.80;3.40;;;19.50;99.90;;;;;;5053698;28;20094;-86
2022/08/02 02:16:52;;;;;;;10.15;3.22;;;19.50;99.90;;;;;;5054327;28;20044;-86
2022/08/02 02:19:20;;;;;;;8.93;2.90;;;19.60;99.90;;;;;;5069725;28;20100;-85
2022/08/02 02:21:46;;;;;;;14.88;3.83;;;19.70;99.90;;;;;;5054166;28;20167;-85
2022/08/02 02:24:12;;;;;;;9.80;3.22;;;19.80;99.90;;;;;;5054162;28;20599;-86
2022/08/02 02:26:42;;;;;;;10.93;3.00;;;19.60;99.90;;;;;;5053783;28;20071;-86
2022/08/02 02:29:10;;;;;;;14.23;4.07;;;19.60;99.90;;;;;;5052220;28;20031;-86
2022/08/02 02:31:39;;;;;;;8.93;3.50;;;19.60;99.90;;;;;;5052727;28;20039;-86
2022/08/02 02:34:12;;;;;;;13.35;3.90;;;19.80;99.90;;;;;;5053667;28;20035;-85
2022/08/02 02:36:46;;;;;;;10.98;3.25;;;19.50;99.90;;;;;;5053772;28;20020;-85
2022/08/02 02:39:14;;;;;;;7.85;3.75;;;19.30;99.90;;;;;;5053790;28;20504;-86
2022/08/02 02:41:42;;;;;;;9.93;3.20;;;19.40;99.90;;;;;;5054059;28;20032;-86
2022/08/02 02:44:12;;;;;;;6.35;3.30;;;19.50;99.90;;;;;;5053537;28;20362;-86
2022/08/02 02:46:39;;;;;;;8.10;3.60;;;19.70;99.90;;;;;;5052414;28;20451;-86
2022/08/02 02:49:09;;;;;;;8.73;3.25;;;19.90;99.90;;;;;;5053516;28;20029;-86
2022/08/02 02:51:35;;;;;;;9.02;3.42;;;20.00;99.90;;;;;;5053630;28;20040;-84
2022/08/02 02:54:01;;;;;;;11.07;3.55;;;19.80;99.90;;;;;;5053364;28;20052;-86
2022/08/02 02:56:27;;;;;;;9.85;3.30;;;19.80;99.90;;;;;;5053088;28;20082;-87
2022/08/02 02:58:53;;;;;;;9.40;3.20;;;19.90;99.90;;;;;;5053069;28;20488;-82
2022/08/02 03:01:26;;;;;;;10.52;3.15;;;19.90;99.90;;;;;;5053537;28;20021;-86
2022/08/02 03:03:54;;;;;;;8.05;2.92;;;19.90;99.90;;;;;;5053295;28;20045;-86
2022/08/02 03:06:20;;;;;;;11.80;3.58;;;19.90;99.90;;;;;;5053204;28;20021;-86
2022/08/02 03:08:45;;;;;;;6.68;3.00;;;19.40;99.90;;;;;;5053734;28;20479;-86
2022/08/02 03:11:12;;;;;;;5.40;3.38;;;19.60;99.90;;;;;;5053235;28;20036;-87
2022/08/02 03:13:39;;;;;;;8.38;3.00;;;19.90;99.90;;;;;;5052633;28;20035;-86
2022/08/02 03:16:06;;;;;;;11.05;3.47;;;19.30;99.90;;;;;;5053170;28;20032;-86
2022/08/02 03:18:36;;;;;;;10.50;3.58;;;19.40;99.90;;;;;;5051946;28;20027;-84
2022/08/02 03:21:05;;;;;;;9.47;3.43;;;19.70;99.90;;;;;;5053069;28;20381;-86
2022/08/02 03:23:32;;;;;;;10.57;3.35;;;19.70;99.90;;;;;;5052787;28;20064;-86
2022/08/02 03:25:58;;;;;;;6.47;3.53;;;19.60;99.90;;;;;;5052906;28;20028;-86
2022/08/02 03:28:25;;;;;;;6.45;2.92;;;19.60;99.90;;;;;;5052808;28;20087;-84
2022/08/02 03:30:50;;;;;;;7.97;3.30;;;19.50;99.90;;;;;;5052941;28;20506;-86
2022/08/02 03:33:18;;;;;;;11.50;3.63;;;19.60;99.90;;;;;;5052647;28;20024;-85
2022/08/02 03:35:46;;;;;;;8.95;3.85;;;18.90;99.90;;;;;;5052895;28;20025;-85
2022/08/02 03:38:14;;;;;;;10.85;4.00;;;19.10;99.90;;;;;;5052559;28;20436;-85
2022/08/02 03:40:44;;;;;;;10.60;3.90;;;19.30;99.90;;;;;;5052535;28;20025;-87
2022/08/02 03:43:11;;;;;;;12.85;3.83;;;19.00;99.90;;;;;;5051424;28;20041;-85
2022/08/02 03:45:43;;;;;;;9.15;4.53;;;18.90;99.90;;;;;;5051541;28;20095;-86
2022/08/02 03:48:11;;;;;;;11.80;4.35;;;18.70;99.90;;;;;;5052803;28;20033;-83
2022/08/02 03:50:38;;;;;;;17.63;5.00;;;18.60;99.90;;;;;;5052490;28;20151;-85
2022/08/02 03:53:05;;;;;;;15.82;5.57;;;18.40;99.90;;;;;;5052797;28;20040;-85
2022/08/02 03:55:31;;;;;;;10.02;4.78;;;18.50;99.90;;;;;;5052135;28;20369;-87
2022/08/02 03:57:57;;;;;;;14.30;5.75;;;18.60;99.90;;;;;;5052760;28;20156;-83
2022/08/02 04:00:23;;;;;;;10.40;4.88;;;18.50;99.90;;;;;;5052424;28;20095;-86
2022/08/02 04:02:49;;;;;;;15.68;4.78;;;18.50;99.90;;;;;;5052492;28;20037;-85
2022/08/02 04:05:17;;;;;;;11.80;5.50;;;18.80;99.90;;;;;;5052352;28;20033;-85
2022/08/02 04:07:44;;;;;;;14.32;5.78;;;19.00;99.90;;;;;;5054356;28;20068;-86
2022/08/02 04:10:10;;;;;;;11.02;5.43;;;19.00;99.90;;;;;;5056425;28;20025;-85
2022/08/02 04:12:37;;;;;;;11.82;5.45;;;18.70;99.90;;;;;;5056411;28;20021;-87
2022/08/02 04:15:04;;;;;;;9.07;4.60;;;18.70;99.90;;;;;;5055903;28;20339;-86
2022/08/02 04:17:33;;;;;;;12.70;5.38;;;18.80;99.90;;;;;;5056154;28;20036;-87
2022/08/02 04:20:13;;;;;;;13.13;5.13;;;18.80;99.90;;;;;;5055258;28;20474;-87
2022/08/02 04:22:51;;;;;;;14.90;5.28;;;18.90;99.90;;;;;;5054970;28;20025;-85
2022/08/02 04:25:19;;;;;;;12.55;5.35;;;18.80;99.90;;;;;;5056120;28;20139;-85
2022/08/02 04:27:45;;;;;;;17.58;5.65;;;18.90;99.90;;;;;;5056283;28;20465;-86
2022/08/02 04:30:13;;;;;;;14.50;6.07;;;19.00;99.90;;;;;;5056509;28;20036;-87
2022/08/02 04:32:39;;;;;;;11.95;5.47;;;18.80;99.90;;;;;;5055250;28;20025;-87
2022/08/02 04:35:06;;;;;;;18.23;5.50;;;18.90;99.90;;;;;;5056222;28;20473;-87
2022/08/02 04:37:33;;;;;;;15.82;6.43;;;19.00;99.90;;;;;;5055824;28;20029;-87
2022/08/02 04:39:59;;;;;;;11.52;6.00;;;19.00;99.90;;;;;;5055579;28;20539;-86
2022/08/02 04:42:25;;;;;;;13.95;6.72;;;18.70;99.90;;;;;;5056174;28;20037;-87
2022/08/02 04:44:52;;;;;;;14.45;7.35;;;18.40;99.90;;;;;;5057260;28;20041;-86
2022/08/02 04:47:20;;;;;;;14.77;8.07;;;18.60;99.90;;;;;;5054776;28;20028;-87
2022/08/02 04:49:46;;;;;;;15.52;8.85;;;18.60;99.90;;;;;;5055959;28;20044;-87
2022/08/02 04:52:12;;;;;;;17.67;9.18;;;18.60;99.90;;;;;;5055888;28;20029;-87
2022/08/02 04:54:38;;;;;;;15.02;9.65;;;18.50;99.90;;;;;;5055435;28;20055;-87
2022/08/02 04:57:53;;;;;;;17.65;9.55;;;18.50;99.90;;;;;;5055543;28;20029;-86
2022/08/02 04:59:50;;;;;;;18.65;9.98;;;18.30;99.90;;;;;;5055533;28;20075;-87
2022/08/02 05:02:16;;;;;;;18.20;10.95;;;18.70;99.90;;;;;;5054604;28;20048;-88
2022/08/02 05:04:42;;;;;;;18.90;10.02;;;18.60;99.90;;;;;;5055502;28;20102;-87
2022/08/02 05:07:07;;;;;;;19.23;11.23;;;18.40;99.90;;;;;;5054930;28;20108;-87
2022/08/02 05:09:33;;;;;;;18.52;10.65;;;18.20;99.90;;;;;;5055222;28;20087;-86
2022/08/02 05:11:59;;;;;;;17.23;9.98;;;18.20;99.90;;;;;;5055309;28;20032;-84
2022/08/02 05:14:25;;;;;;;14.63;9.82;;;18.20;99.90;;;;;;5055411;28;20032;-86
2022/08/02 05:16:50;;;;;;;13.05;9.88;;;18.30;99.90;;;;;;5055196;28;20086;-83
2022/08/02 05:19:16;;;;;;;15.93;10.15;;;18.40;99.90;;;;;;5054896;28;20028;-86
2022/08/02 05:21:42;;;;;;;20.40;10.77;;;18.50;99.90;;;;;;5055119;28;20025;-86
2022/08/02 05:24:08;;;;;;;15.63;10.77;;;18.60;99.90;;;;;;5054955;28;20500;-84
2022/08/02 05:26:34;;;;;;;21.80;10.95;;;18.50;99.90;;;;;;5054107;28;20037;-83
2022/08/02 05:29:00;;;;;;;19.67;11.00;;;18.50;99.90;;;;;;5055296;28;20021;-84
2022/08/02 05:31:26;;;;;;;22.23;11.30;;;18.40;99.90;;;;;;5056203;28;20051;-85
2022/08/02 05:33:51;;;;;;;20.98;10.98;;;18.60;99.90;;;;;;5068660;28;20028;-79
2022/08/02 05:36:17;;;;;;;17.98;10.30;;;18.70;99.90;;;;;;5061703;28;20025;-80
2022/08/02 05:38:43;;;;;;;17.27;11.15;;;18.80;99.90;;;;;;5059842;28;20028;-79
2022/08/02 05:41:09;;;;;;;22.17;11.57;;;18.70;99.90;;;;;;5059299;28;20032;-79
2022/08/02 05:43:34;;;;;;;19.00;11.88;;;18.60;99.90;;;;;;5059922;28;20476;-79
2022/08/02 05:46:00;;;;;;;17.77;12.20;;;18.80;99.90;;;;;;5071800;28;20311;-79
2022/08/02 05:48:26;;;;;;;19.05;12.10;;;19.00;99.90;;;;;;5067426;28;20017;-80
2022/08/02 05:51:17;;;;;;;19.00;10.68;;;19.10;99.90;;;;;;5059159;28;20354;-80
2022/08/02 05:54:18;;;;;;;17.60;11.15;;;19.20;99.90;;;;;;5052942;28;20466;-79
2022/08/02 05:56:53;;;;;;;18.42;11.75;;;18.70;99.90;;;;;;5066942;28;20028;-79
2022/08/02 05:59:44;;;;;;;19.75;12.38;;;18.90;99.90;;;;;;5065158;28;20123;-79
2022/08/02 06:02:19;;;;;;;16.88;12.25;;;19.30;99.90;;;;;;5062557;28;20040;-79
2022/08/02 06:05:03;;;;;;;19.67;11.73;;;19.00;99.90;;;;;;5056306;28;20067;-79
2022/08/02 06:07:34;;;;;;;17.15;11.57;;;19.10;99.90;;;;;;5056800;28;20159;-79
2022/08/02 06:10:03;;;;;;;19.48;12.10;;;19.40;99.90;;;;;;5069731;28;20043;-79
2022/08/02 06:12:31;;;;;;;18.02;11.88;;;19.00;99.90;;;;;;5062902;28;20026;-79
2022/08/02 06:14:58;;;;;;;24.05;11.88;;;19.00;99.90;;;;;;5052531;28;20037;-79
2022/08/02 06:17:24;;;;;;;17.23;10.55;;;19.00;99.90;;;;;;5051531;28;20029;-79
2022/08/02 06:19:55;;;;;;;19.15;10.93;;;18.90;99.90;;;;;;5054179;28;20025;-79
2022/08/02 06:22:25;;;;;;;18.60;11.55;;;18.90;99.90;;;;;;5053369;28;20060;-79
2022/08/02 06:24:52;;;;;;;20.90;11.23;;;19.20;99.90;;;;;;5053132;28;20045;-79
2022/08/02 06:27:20;;;;;;;25.70;11.15;;;19.50;99.90;;;;;;5053033;28;20099;-80
2022/08/02 06:29:47;;;;;;;16.35;10.52;;;19.50;99.90;;;;;;5053235;28;20477;-80
2022/08/02 06:32:18;;;;;;;16.55;11.05;;;19.60;99.90;;;;;;5054028;28;20039;-80
2022/08/02 06:34:44;;;;;;;15.15;10.05;;;19.90;99.90;;;;;;5053481;28;20052;-80
2022/08/02 06:37:37;;;;;;;13.82;8.82;;;19.80;99.90;;;;;;5052518;28;20087;-80
2022/08/02 06:40:24;;;;;;;15.52;7.93;;;19.90;99.90;;;;;;5053781;28;20040;-80
2022/08/02 06:43:14;;;;;;;16.90;8.60;;;19.80;99.90;;;;;;5053543;28;20107;-80
2022/08/02 06:45:40;;;;;;;10.48;7.60;;;19.60;99.90;;;;;;5053702;28;20033;-80
2022/08/02 06:48:07;;;;;;;10.75;7.05;;;19.50;99.90;;;;;;5053646;28;20070;-80
2022/08/02 06:50:36;;;;;;;13.10;7.50;;;19.60;99.90;;;;;;5053465;28;20029;-80
2022/08/02 06:53:04;;;;;;;11.70;7.38;;;19.70;99.90;;;;;;5053526;28;20028;-79
2022/08/02 06:55:31;;;;;;;10.63;6.65;;;19.80;99.90;;;;;;5053515;28;20025;-80
2022/08/02 06:57:57;;;;;;;11.63;6.88;;;19.80;99.90;;;;;;5053439;28;20024;-80
2022/08/02 07:00:23;;;;;;;9.98;6.75;;;19.60;99.90;;;;;;5053601;28;20350;-80
2022/08/02 07:02:49;;;;;;;12.57;5.93;;;19.80;99.90;;;;;;5053190;28;20025;-79
2022/08/02 07:05:15;;;;;;;10.60;5.97;;;19.90;99.90;;;;;;5053102;28;20531;-79
2022/08/02 07:07:41;;;;;;;12.10;6.88;;;19.90;99.90;;;;;;5053022;28;20068;-79
2022/08/02 07:10:08;;;;;;;10.57;6.05;;;19.80;99.90;;;;;;5053171;28;20063;-80
2022/08/02 07:12:34;;;;;;;15.07;6.82;;;19.80;99.90;;;;;;5051950;28;20413;-76
2022/08/02 07:15:03;;;;;;;8.27;5.65;;;19.70;99.90;;;;;;5035291;28;20013;-77
2022/08/02 07:17:29;;;;;;;11.98;5.75;;;20.20;99.90;;;;;;5053195;28;20464;-80
2022/08/02 07:19:55;;;;;;;17.13;5.75;;;20.30;99.90;;;;;;5052799;28;20051;-75
2022/08/02 07:22:22;;;;;;;10.55;5.50;;;20.30;99.90;;;;;;5053050;28;20025;-76
2022/08/02 07:24:48;;;;;;;9.48;5.32;;;20.20;99.90;;;;;;5052923;28;20068;-76
2022/08/02 07:27:14;;;;;;;8.43;4.90;;;20.40;99.90;;;;;;5053199;28;20029;-78
2022/08/02 07:29:41;;;;;;;16.33;4.97;;;20.60;99.90;;;;;;5053079;28;20025;-85
2022/08/02 07:32:06;;;;;;;8.95;4.45;;;20.70;99.90;;;;;;5053253;28;20477;-77
2022/08/02 07:34:32;;;;;;;13.07;4.97;;;20.70;99.90;;;;;;5051193;28;20032;-79
2022/08/02 07:36:58;;;;;;;12.20;4.65;;;20.80;99.90;;;;;;5051892;28;20080;-73
2022/08/02 07:39:24;;;;;;;10.55;4.25;;;20.80;99.90;;;;;;5052730;28;20040;-79
2022/08/02 07:41:50;;;;;;;21.70;4.57;;;21.10;99.90;;;;;;5052342;28;20370;-77
2022/08/02 07:44:17;;;;;;;9.43;5.07;;;21.30;99.90;;;;;;5052246;28;20527;-77
2022/08/02 07:46:43;;;;;;;35.33;5.53;;;21.50;99.90;;;;;;5052765;28;20025;-77
2022/08/02 07:49:10;;;;;;;16.20;4.25;;;21.50;99.90;;;;;;5034593;28;20501;-80
2022/08/02 07:51:35;;;;;;;6.80;3.80;;;21.70;99.90;;;;;;5051877;28;20090;-80
2022/08/02 07:54:01;;;;;;;8.18;4.38;;;21.70;99.90;;;;;;5052319;28;20528;-78
2022/08/02 07:56:27;;;;;;;8.95;3.72;;;21.60;99.90;;;;;;5051573;28;20465;-75
2022/08/02 07:58:53;;;;;;;8.55;3.13;;;21.70;99.90;;;;;;5052483;28;20021;-74
2022/08/02 08:01:19;;;;;;;6.53;3.00;;;21.80;99.90;;;;;;5051422;28;20113;-74
2022/08/02 08:03:45;;;;;;;8.07;3.70;;;21.80;99.90;;;;;;5052214;28;20028;-76
2022/08/02 08:06:11;;;;;;;10.60;4.28;;;22.10;99.90;;;;;;5052611;28;20098;-74
2022/08/02 08:08:36;;;;;;;8.20;3.00;;;22.20;99.90;;;;;;5051406;28;20465;-76
2022/08/02 08:11:03;;;;;;;12.77;4.25;;;22.30;99.90;;;;;;5052263;28;20029;-75
2022/08/02 08:13:28;;;;;;;6.30;3.20;;;22.20;99.90;;;;;;5052495;28;20021;-77
2022/08/02 08:15:54;;;;;;;4.65;2.72;;;22.20;99.90;;;;;;5052279;28;20519;-82
2022/08/02 08:18:21;;;;;;;8.45;3.40;;;22.30;99.90;;;;;;5052656;28;20028;-82
2022/08/02 08:20:46;;;;;;;3.95;2.47;;;22.40;99.90;;;;;;5051442;28;20029;-77
2022/08/02 08:23:12;;;;;;;9.00;2.50;;;22.60;99.90;;;;;;5052429;28;20047;-77
2022/08/02 08:25:38;;;;;;;6.10;2.60;;;22.60;99.90;;;;;;5051171;28;20397;-81
2022/08/02 08:28:04;;;;;;;6.32;2.85;;;22.20;99.90;;;;;;5052421;28;20025;-82
2022/08/02 08:30:30;;;;;;;5.75;2.38;;;22.20;99.90;;;;;;5049505;28;20027;-81
2022/08/02 08:32:55;;;;;;;6.47;2.47;;;22.40;99.90;;;;;;5059101;28;20013;-81
2022/08/02 08:35:22;;;;;;;6.32;2.17;;;22.30;99.90;;;;;;5040982;28;20032;-83
2022/08/02 08:37:48;;;;;;;3.97;1.85;;;22.50;99.90;;;;;;5046988;28;20041;-82
2022/08/02 08:40:14;;;;;;;6.82;2.20;;;22.80;99.90;;;;;;5051745;28;20029;-82
2022/08/02 08:42:40;;;;;;;4.22;1.90;;;23.00;99.90;;;;;;5052413;28;20516;-78
2022/08/02 09:01:34;;;;;;;4.40;1.52;;;22.70;99.90;;;;;;5045626;28;20756;-77
2022/08/02 09:04:00;;;;;;;8.32;1.27;;;23.80;98.80;;;;;;5036020;28;20084;-76
2022/08/02 09:06:27;;;;;;;2.95;1.00;;;23.50;97.80;;;;;;5041541;28;20116;-77
2022/08/02 09:08:52;;;;;;;2.78;1.30;;;23.40;98.50;;;;;;5044171;28;20017;-79
2022/08/02 09:11:23;;;;;;;2.50;1.20;;;23.30;98.10;;;;;;5045931;28;20119;-79
2022/08/02 09:13:52;;;;;;;2.75;1.10;;;23.20;97.80;;;;;;5035454;28;20032;-78
2022/08/02 09:16:38;;;;;;;2.90;1.13;;;23.20;98.40;;;;;;5045463;28;20053;-79
2022/08/02 09:19:19;;;;;;;2.45;1.42;;;23.70;98.50;;;;;;5032813;28;20044;-79
2022/08/02 09:21:47;;;;;;;4.03;1.50;;;23.50;98.30;;;;;;5045489;28;20034;-82
2022/08/02 09:24:21;;;;;;;5.63;1.70;;;23.80;98.70;;;;;;5044716;28;20109;-81
2022/08/02 09:26:48;;;;;;;3.80;1.40;;;24.30;98.00;;;;;;5045123;28;20041;-83
2022/08/02 09:29:15;;;;;;;5.20;1.55;;;24.40;97.70;;;;;;5043681;28;20036;-83
2022/08/02 09:31:41;;;;;;;2.20;1.40;;;24.50;98.60;;;;;;5045181;28;20075;-81
2022/08/02 09:34:08;;;;;;;3.05;1.10;;;24.80;97.70;;;;;;5045412;28;20079;-80
2022/08/02 09:36:38;;;;;;;5.15;1.20;;;24.80;96.00;;;;;;5046591;28;20029;-81
2022/08/02 09:39:06;;;;;;;1.70;1.10;;;24.70;95.90;;;;;;5042267;28;20069;-77
2022/08/02 09:41:35;;;;;;;12.40;1.52;;;24.50;96.00;;;;;;5044952;28;20036;-83
2022/08/02 09:44:03;;;;;;;8.23;1.20;;;24.60;96.50;;;;;;5045054;28;20029;-81
2022/08/02 09:46:32;;;;;;;5.07;1.08;;;24.80;96.50;;;;;;5047442;28;20430;-81
2022/08/02 09:49:00;;;;;;;3.42;1.17;;;25.10;96.60;;;;;;5048960;28;20022;-84
2022/08/02 09:51:27;;;;;;;3.47;1.00;;;25.00;95.00;;;;;;5049698;28;20116;-82
2022/08/02 09:53:54;;;;;;;3.47;1.23;;;25.20;95.20;;;;;;5049311;28;20052;-81
2022/08/02 09:56:21;;;;;;;9.77;1.38;;;25.00;95.50;;;;;;5048251;28;20029;-82
2022/08/02 09:58:48;;;;;;;3.75;1.20;;;25.20;95.80;;;;;;5048914;28;20476;-81
2022/08/02 10:01:14;;;;;;;3.53;0.90;;;25.80;95.20;;;;;;5042923;28;20053;-81
2022/08/02 10:04:11;;;;;;;5.20;1.13;;;25.70;94.50;;;;;;5027340;28;20026;-83
2022/08/02 10:06:41;;;;;;;4.72;1.08;;;25.90;93.90;;;;;;5024006;28;20473;-82
2022/08/02 10:09:08;;;;;;;2.55;1.00;;;25.60;93.80;;;;;;5035808;28;20026;-84
2022/08/02 10:11:34;;;;;;;2.97;0.90;;;25.30;94.10;;;;;;5035779;28;20025;-82
2022/08/02 10:14:05;;;;;;;4.07;1.45;;;25.20;94.60;;;;;;5035785;28;20095;-81
2022/08/02 10:16:36;;;;;;;2.40;1.00;;;25.10;95.10;;;;;;5035157;28;20029;-82
2022/08/02 10:19:03;;;;;;;3.40;1.27;;;24.90;95.40;;;;;;5035072;28;20304;-81
2022/08/02 10:21:54;;;;;;;2.22;1.10;;;25.20;94.90;;;;;;5034805;28;20032;-82
2022/08/02 10:24:23;;;;;;;2.33;1.10;;;25.10;94.70;;;;;;5034155;28;20030;-81
2022/08/02 10:26:49;;;;;;;3.95;0.90;;;25.40;95.10;;;;;;5034911;28;20070;-81
2022/08/02 10:29:18;;;;;;;3.00;1.13;;;26.00;95.30;;;;;;5034965;28;20045;-84
2022/08/02 10:31:52;;;;;;;1.95;0.88;;;26.50;95.10;;;;;;5033896;28;20033;-82
2022/08/02 10:34:22;;;;;;;3.42;1.80;;;26.10;94.70;;;;;;5035223;28;20038;-81
2022/08/02 10:36:48;;;;;;;4.72;1.20;;;25.80;94.50;;;;;;5033308;28;20189;-83
2022/08/02 10:39:15;;;;;;;2.17;1.15;;;25.90;94.80;;;;;;5034817;28;20414;-82
2022/08/02 10:41:41;;;;;;;2.10;1.20;;;25.60;94.40;;;;;;5034756;28;20029;-82
2022/08/02 10:44:07;;;;;;;3.25;0.82;;;25.80;95.10;;;;;;5034941;28;20024;-79
2022/08/02 10:46:35;;;;;;;3.00;1.30;;;26.10;94.70;;;;;;5034758;28;20037;-81
2022/08/02 10:49:21;;;;;;;3.45;1.10;;;26.30;94.30;;;;;;5034620;28;20025;-78
2022/08/02 10:52:02;;;;;;;5.63;1.27;;;26.20;94.90;;;;;;5034301;28;20048;-77
2022/08/02 10:54:32;;;;;;;6.63;1.77;;;26.20;94.80;;;;;;5034677;28;20112;-79
2022/08/02 10:56:59;;;;;;;2.65;1.15;;;26.00;94.80;;;;;;5034527;28;20030;-79
2022/08/02 10:59:38;;;;;;;2.70;1.20;;;26.40;94.50;;;;;;5034359;28;20041;-78
2022/08/02 11:02:05;;;;;;;4.53;1.00;;;26.40;93.70;;;;;;5023867;28;20041;-79
2022/08/02 11:04:52;;;;;;;5.60;1.10;;;26.90;93.90;;;;;;5026071;28;20028;-78
2022/08/02 11:07:34;;;;;;;2.95;1.30;;;26.90;93.50;;;;;;5028889;28;20382;-79
2022/08/02 11:10:36;;;;;;;4.10;1.40;;;26.50;93.20;;;;;;5030198;28;20030;-79
2022/08/02 11:13:14;;;;;;;3.92;1.25;;;26.00;93.80;;;;;;5027440;28;20032;-78
2022/08/02 11:16:00;;;;;;;4.22;1.25;;;25.90;94.40;;;;;;5028758;28;20057;-79
2022/08/02 11:18:50;;;;;;;2.20;1.23;;;26.20;94.50;;;;;;5028383;28;20041;-79
2022/08/02 11:21:27;;;;;;;7.63;1.92;;;26.60;94.70;;;;;;5029608;28;20052;-79
2022/08/02 11:23:53;;;;;;;3.63;1.35;;;26.50;94.80;;;;;;5010220;28;20096;-79
2022/08/02 11:26:31;;;;;;;7.10;1.60;;;26.50;94.80;;;;;;5017893;28;20076;-79
2022/08/02 11:28:59;;;;;;;8.52;1.67;;;27.10;94.40;;;;;;5021643;28;20061;-78
2022/08/02 11:31:25;;;;;;;5.85;1.30;;;27.40;93.90;;;;;;5011331;28;20029;-78
2022/08/02 11:33:51;;;;;;;3.00;1.20;;;27.40;93.90;;;;;;5009362;28;20014;-79
2022/08/02 11:36:19;;;;;;;6.20;1.52;;;27.70;93.40;;;;;;5012257;28;20029;-79
2022/08/02 11:38:44;;;;;;;5.65;1.40;;;27.60;93.70;;;;;;5018716;28;20029;-79
2022/08/02 11:41:21;;;;;;;3.67;1.50;;;27.60;93.60;;;;;;5013009;28;20049;-80
2022/08/02 11:43:53;;;;;;;3.58;1.33;;;28.30;93.60;;;;;;5010729;28;20326;-79
2022/08/02 11:46:19;;;;;;;6.60;1.02;;;28.30;92.80;;;;;;5012984;28;20117;-79
2022/08/02 11:48:45;;;;;;;2.50;1.00;;;27.90;93.40;;;;;;5011575;28;20036;-79
2022/08/02 11:51:14;;;;;;;3.50;1.40;;;27.70;93.50;;;;;;5013069;28;20030;-79
2022/08/02 11:53:53;;;;;;;4.07;1.00;;;27.70;94.00;;;;;;5015325;28;20021;-79
2022/08/02 11:56:27;;;;;;;7.68;1.25;;;27.40;93.50;;;;;;5013616;28;20026;-79
2022/08/02 11:59:04;;;;;;;1.98;1.00;;;27.20;93.70;;;;;;5009350;28;20398;-79
2022/08/02 12:01:31;;;;;;;2.88;1.45;;;27.60;93.80;;;;;;5003682;28;20038;-79
2022/08/02 12:03:59;;;;;;;3.67;1.23;;;27.30;93.20;;;;;;5011407;28;20057;-80
2022/08/02 12:06:29;;;;;;;5.43;1.35;;;27.90;93.80;;;;;;5021731;28;20026;-79
2022/08/02 12:09:09;;;;;;;4.95;1.17;;;28.20;93.10;;;;;;5017674;28;20040;-79
2022/08/02 12:11:37;;;;;;;3.10;1.20;;;28.50;92.80;;;;;;5012725;28;20026;-79
2022/08/02 12:14:04;;;;;;;6.57;1.40;;;28.40;93.20;;;;;;5028998;28;20116;-79
2022/08/02 12:19:28;;;;;;;1.80;1.10;;;29.70;92.70;;;;;;5028621;28;20029;-79
2022/08/02 12:22:23;;;;;;;3.25;1.60;;;29.80;92.00;;;;;;5028393;28;20033;-79
2022/08/02 12:24:51;;;;;;;2.42;1.10;;;29.80;92.00;;;;;;5027185;28;20029;-79
2022/08/02 12:27:32;;;;;;;5.70;1.15;;;29.10;92.60;;;;;;5028699;28;20108;-79
2022/08/02 12:30:19;;;;;;;5.93;1.25;;;29.40;92.50;;;;;;5028480;28;20476;-79
2022/08/02 12:32:45;;;;;;;4.15;1.00;;;29.40;92.80;;;;;;5018484;28;20021;-79
2022/08/02 12:35:18;;;;;;;7.60;1.23;;;28.90;92.90;;;;;;5017003;28;20370;-79
2022/08/02 12:37:47;;;;;;;7.93;1.15;;;29.60;92.90;;;;;;5016819;28;20032;-79
2022/08/02 12:40:21;;;;;;;3.08;1.10;;;30.00;92.90;;;;;;5031980;28;20033;-79
2022/08/02 12:43:15;;;;;;;3.90;1.05;;;29.50;93.00;;;;;;5032337;28;20045;-79
2022/08/02 12:45:53;;;;;;;3.45;0.88;;;29.40;93.00;;;;;;5030677;28;20041;-79
2022/08/02 12:48:36;;;;;;;3.75;1.30;;;29.50;93.10;;;;;;5032687;28;20037;-79
2022/08/02 12:51:32;;;;;;;5.82;1.13;;;30.10;92.60;;;;;;5018529;28;20452;-79
2022/08/02 12:54:19;;;;;;;6.05;1.50;;;29.70;93.00;;;;;;5032488;28;20028;-79
2022/08/02 12:56:46;;;;;;;2.03;1.00;;;29.50;92.80;;;;;;5031296;28;20104;-79
2022/08/02 12:59:12;;;;;;;5.82;1.08;;;29.70;93.00;;;;;;5023422;28;20113;-79
2022/08/02 13:01:39;;;;;;;11.40;1.25;;;29.90;92.80;;;;;;5018751;28;20542;-79
2022/08/02 13:04:05;;;;;;;5.13;1.10;;;30.20;93.00;;;;;;5031253;28;20083;-79
2022/08/02 13:06:31;;;;;;;3.13;1.35;;;31.20;92.50;;;;;;5031295;28;20034;-80
2022/08/02 13:08:57;;;;;;;3.35;1.42;;;31.00;92.40;;;;;;5024857;28;20020;-79
2022/08/02 13:11:24;;;;;;;7.00;1.02;;;29.60;93.10;;;;;;5019347;28;20067;-79
2022/08/02 13:13:50;;;;;;;3.60;1.13;;;29.90;93.20;;;;;;5010050;28;20018;-79
2022/08/02 13:16:16;;;;;;;3.50;1.52;;;30.60;92.50;;;;;;5007798;28;20041;-79
2022/08/02 13:18:44;;;;;;;2.97;1.15;;;30.90;92.60;;;;;;5020261;28;20015;-80